Weather History for Waskish, MN

Change the Weather History Date:

Friday, November 8, 2013

  Actual Average (KBDE) Record (KBDE)
Temperature  
Mean Temperature 27 °F -  
Max Temperature 37 °F 40 °F 66 °F (1999)
Min Temperature 17 °F 24 °F -8 °F (2003)
Degree Days  
Heating Degree Days 38    
Moisture  
Dew Point 27 °F    
Average Humidity 90    
Maximum Humidity 100    
Minimum Humidity 65    
Precipitation  
Precipitation 0.10 in - - ()
Sea Level Pressure  
Sea Level Pressure 29.85 in    
Wind  
Wind Speed 5 mph (ESE)    
Max Wind Speed 13 mph    
Max Gust Speed 20 mph    
Visibility 7 miles    
Events Snow    
Averages and records for this station are not official NWS values.
T = Trace of Precipitation, MM = Missing Value Source: NWS Daily Summary

Daily Weather History Graph

Daily Weather History Graph

Search for Another Location

Airport:

Trip Planner

Search our weather history database for the weather conditions in past years. The results will help you decide how hot, cold, wet, or windy it might be!

Date:

Astronomy

Nov. 08, 2013 Rise Set
Actual Time 7:14 AM CST 4:48 PM CST
Civil Twilight 6:41 AM CST 5:21 PM CST
Nautical Twilight 6:03 AM CST 5:59 PM CST
Astronomical Twilight 5:27 AM CST 6:35 PM CST
Moon 12:11 PM CST (11/8) 10:11 PM CST (11/8)
Length of Visible Light 10h 40m
Length of Day
9h 33m
Waxing Crescent, 33% of the Moon is Illuminated
Nov 8
Waxing Crescent
Nov 9
First Quarter
Nov 17
Full
Nov 25
Last Quarter
Dec 2
New

Hourly Weather History & Observations

Time (CST) Temp. Windchill Dew Point Humidity Pressure Visibility Wind Dir Wind Speed Gust Speed Precip Events Conditions
12:02 AM 17.6 °F - 15.8 °F 93% 30.09 in 10.0 mi Calm Calm - N/A   Clear
12:22 AM 17.6 °F - 15.8 °F 93% 30.09 in 10.0 mi Calm Calm - N/A   Clear
12:42 AM 17.6 °F 12.3 °F 17.6 °F 100% 30.09 in 10.0 mi SE 3.5 mph - N/A   Clear
1:02 AM 17.6 °F - 17.6 °F 100% 30.08 in 10.0 mi Calm Calm - N/A   Clear
1:22 AM 19.4 °F 14.3 °F 17.6 °F 93% 30.08 in 10.0 mi SSE 3.5 mph - N/A   Clear
1:42 AM 19.4 °F - 17.6 °F 93% 30.08 in 10.0 mi Calm Calm - N/A   Clear
2:02 AM 17.6 °F - 17.6 °F 100% 30.08 in 10.0 mi Calm Calm - N/A   Clear
2:22 AM 19.4 °F - 17.6 °F 93% 30.09 in 7.0 mi Calm Calm - N/A   Clear
2:42 AM 21.2 °F - 19.4 °F 93% 30.08 in 10.0 mi Calm Calm - N/A   Clear
3:02 AM 19.4 °F 14.3 °F 17.6 °F 93% 30.07 in 10.0 mi SE 3.5 mph - N/A   Clear
3:22 AM 19.4 °F 14.3 °F 17.6 °F 93% 30.07 in 10.0 mi SSE 3.5 mph - N/A   Clear
3:42 AM 19.4 °F 12.8 °F 19.4 °F 100% 30.07 in 10.0 mi South 4.6 mph - N/A   Clear
4:02 AM 21.2 °F 14.9 °F 19.4 °F 93% 30.06 in 10.0 mi SE 4.6 mph - N/A   Clear
4:22 AM 19.4 °F 12.8 °F 17.6 °F 93% 30.05 in 10.0 mi SE 4.6 mph - N/A   Clear
4:42 AM 19.4 °F 14.3 °F 19.4 °F 100% 30.05 in 10.0 mi SE 3.5 mph - N/A   Clear
5:02 AM 19.4 °F 14.3 °F 17.6 °F 93% 30.04 in 10.0 mi SE 3.5 mph - N/A   Clear
5:22 AM 19.4 °F 14.3 °F 19.4 °F 100% 30.03 in 10.0 mi SE 3.5 mph - N/A   Clear
5:42 AM 21.2 °F 16.4 °F 21.2 °F 100% 30.03 in 10.0 mi SE 3.5 mph - N/A   Clear
6:03 AM 23.0 °F 18.4 °F 21.2 °F 93% 30.01 in 10.0 mi SE 3.5 mph - N/A   Clear
6:22 AM 24.8 °F 19.1 °F 23.0 °F 93% 30.01 in 10.0 mi SE 4.6 mph - N/A   Clear
6:42 AM 24.8 °F 19.1 °F 23.0 °F 93% 30.01 in 10.0 mi SE 4.6 mph - N/A   Clear
7:03 AM 24.8 °F 16.9 °F 24.8 °F 100% 30.00 in 10.0 mi ESE 6.9 mph - N/A   Clear
7:22 AM 26.6 °F 20.0 °F 24.8 °F 93% 29.99 in 10.0 mi ESE 5.8 mph - N/A   Clear
7:42 AM 26.6 °F 20.0 °F 24.8 °F 93% 29.99 in 10.0 mi ESE 5.8 mph - N/A   Scattered Clouds
8:03 AM 26.6 °F 20.0 °F 26.6 °F 100% 29.98 in 10.0 mi ESE 5.8 mph - N/A   Mostly Cloudy
8:22 AM 28.4 °F 22.2 °F 26.6 °F 93% 29.97 in 10.0 mi ESE 5.8 mph - N/A   Mostly Cloudy
8:42 AM 28.4 °F 21.2 °F 26.6 °F 93% 29.95 in 10.0 mi ESE 6.9 mph - N/A   Mostly Cloudy
9:02 AM 28.4 °F 20.4 °F 28.4 °F 100% 29.94 in 10.0 mi ESE 8.1 mph - N/A   Scattered Clouds
9:22 AM 30.2 °F 22.6 °F 28.4 °F 93% 29.94 in 10.0 mi ESE 8.1 mph - N/A   Scattered Clouds
9:42 AM 32.0 °F 26.4 °F 30.2 °F 93% 29.93 in 10.0 mi SE 5.8 mph - N/A   Scattered Clouds
10:03 AM 33.8 °F 27.0 °F 30.2 °F 87% 29.92 in 10.0 mi ESE 8.1 mph - N/A   Scattered Clouds
10:22 AM 35.6 °F 28.6 °F 30.2 °F 81% 29.91 in 10.0 mi ESE 9.2 mph 16.1 mph N/A   Clear
10:42 AM 35.6 °F 28.6 °F 28.4 °F 75% 29.89 in 10.0 mi ESE 9.2 mph - N/A   Scattered Clouds
11:03 AM 35.6 °F 28.6 °F 28.4 °F 75% 29.88 in 10.0 mi ESE 9.2 mph 18.4 mph N/A   Scattered Clouds
11:22 AM 37.4 °F 30.3 °F 28.4 °F 70% 29.88 in 10.0 mi ESE 10.4 mph - N/A   Scattered Clouds
11:42 AM 37.4 °F 31.4 °F 28.4 °F 70% 29.87 in 10.0 mi ESE 8.1 mph - N/A   Scattered Clouds
12:03 PM 37.4 °F 30.8 °F 28.4 °F 70% 29.86 in 10.0 mi ESE 9.2 mph - N/A   Mostly Cloudy
12:22 PM 37.4 °F 30.3 °F 26.6 °F 65% 29.84 in 10.0 mi ESE 10.4 mph 16.1 mph N/A   Mostly Cloudy
12:42 PM 37.4 °F 30.8 °F 28.4 °F 70% 29.83 in 10.0 mi ESE 9.2 mph - N/A   Mostly Cloudy
1:03 PM 37.4 °F 30.8 °F 28.4 °F 70% 29.83 in 7.0 mi ESE 9.2 mph - N/A   Overcast
1:22 PM 35.6 °F 27.1 °F 28.4 °F 75% 29.82 in 1.5 mi ESE 12.7 mph - N/A Snow Light Snow
1:42 PM 35.6 °F 27.5 °F 30.2 °F 81% 29.80 in 3.0 mi ESE 11.5 mph 16.1 mph N/A Snow Light Snow
2:03 PM 33.8 °F 25.8 °F 30.2 °F 87% 29.78 in 1.8 mi East 10.4 mph 19.6 mph N/A Snow Light Snow
2:22 PM 33.8 °F 25.3 °F 30.2 °F 87% 29.77 in 1.2 mi East 11.5 mph 18.4 mph N/A Snow Light Snow
2:42 PM 33.8 °F 25.8 °F 30.2 °F 87% 29.76 in 1.2 mi ESE 10.4 mph 18.4 mph N/A Snow Light Snow
3:02 PM 33.8 °F 25.3 °F 30.2 °F 87% 29.75 in 0.5 mi ESE 11.5 mph - 0.01 in Snow Snow
3:22 PM 33.8 °F 25.8 °F 32.0 °F 93% 29.75 in 0.8 mi East 10.4 mph - 0.02 in Snow Light Snow
3:42 PM 33.8 °F 27.0 °F 32.0 °F 93% 29.74 in 0.5 mi East 8.1 mph - 0.03 in Snow Light Snow
4:02 PM 33.8 °F 25.8 °F 32.0 °F 93% 29.73 in 2.5 mi East 10.4 mph - N/A Snow Light Snow
4:22 PM 33.8 °F 24.8 °F 32.0 °F 93% 29.72 in 0.8 mi East 12.7 mph 19.6 mph N/A Snow Light Snow
4:42 PM 33.8 °F 26.4 °F 32.0 °F 93% 29.71 in 1.2 mi East 9.2 mph - 0.01 in Snow Light Snow
5:02 PM 33.8 °F 26.4 °F 32.0 °F 93% 29.71 in 1.0 mi East 9.2 mph - 0.01 in Snow Snow
5:22 PM 33.8 °F 25.3 °F 32.0 °F 93% 29.70 in 1.0 mi East 11.5 mph 17.3 mph 0.02 in Snow Snow
5:42 PM 33.8 °F 25.8 °F 32.0 °F 93% 29.69 in 1.0 mi East 10.4 mph - 0.03 in Snow Snow
6:02 PM 33.8 °F 25.8 °F 32.0 °F 93% 29.68 in 1.0 mi East 10.4 mph - N/A Snow Snow
6:22 PM 33.8 °F 25.3 °F 32.0 °F 93% 29.67 in 1.5 mi East 11.5 mph 16.1 mph 0.01 in Snow Light Snow
6:42 PM 33.8 °F 26.4 °F 32.0 °F 93% 29.67 in 1.0 mi East 9.2 mph - 0.02 in Snow Snow
7:02 PM 33.8 °F 26.4 °F 32.0 °F 93% 29.66 in 1.0 mi East 9.2 mph - N/A Snow Snow
7:22 PM 33.8 °F 26.4 °F 32.0 °F 93% 29.65 in 1.5 mi East 9.2 mph - N/A Snow Light Snow
7:42 PM 33.8 °F 25.8 °F 32.0 °F 93% 29.64 in 2.5 mi East 10.4 mph - 0.01 in Snow Light Snow
8:02 PM 33.8 °F 27.7 °F 32.0 °F 93% 29.63 in 1.8 mi East 6.9 mph - N/A Snow Light Snow
8:22 PM 33.8 °F 27.0 °F 32.0 °F 93% 29.63 in 3.0 mi East 8.1 mph - N/A Snow Light Snow
8:42 PM 33.8 °F 27.7 °F 32.0 °F 93% 29.62 in 3.0 mi East 6.9 mph - N/A Snow Light Snow
9:02 PM 33.8 °F 27.7 °F 32.0 °F 93% 29.62 in 2.5 mi ESE 6.9 mph - N/A Snow Light Snow
9:22 PM 33.8 °F 28.6 °F 32.0 °F 93% 29.61 in 5.0 mi East 5.8 mph - N/A Snow Light Snow
9:42 PM 33.8 °F 28.6 °F 32.0 °F 93% 29.61 in 7.0 mi East 5.8 mph - N/A   Overcast
10:02 PM 33.8 °F 27.0 °F 32.0 °F 93% 29.60 in 10.0 mi East 8.1 mph - N/A   Overcast
10:22 PM 33.8 °F 29.6 °F 32.0 °F 93% 29.60 in 10.0 mi East 4.6 mph - N/A   Overcast
10:42 PM 33.8 °F 28.6 °F 32.0 °F 93% 29.59 in 7.0 mi East 5.8 mph - N/A   Overcast
11:02 PM 33.8 °F 29.6 °F 32.0 °F 93% 29.59 in 5.0 mi East 4.6 mph - N/A   Overcast
11:22 PM 33.8 °F 30.8 °F 32.0 °F 93% 29.59 in 5.0 mi East 3.5 mph - N/A   Overcast
11:42 PM 33.8 °F - 32.0 °F 93% 29.59 in 5.0 mi Calm Calm - N/A   Overcast